KAYS/AYS METAR and TAF weather

Enter ICAO airport designator
Station Type Date Time Source
KAYS METAR 2020/04/07 03:55 UTC NOAA

KAYS 070355Z AUTO 19004KT 10SM CLR 20/14 A3010 RMK AO2 T01970138 TSNO


Station Type Date Time Source
KAYS Decoded METAR 2020/04/07 03:55 UTC NOAA

Waycross / Ware County, Ga, GA, United States (KAYS) 31-15N 082-24W 46M
Apr 06, 2020 - 11:55 PM EDT / 2020.04.07 0355 UTC
Wind: from the S (190 degrees) at 5 MPH (4 KT):0
Visibility: 10 mile(s):0
Sky conditions: clear
Temperature: 67.5 F (19.7 C)
Dew Point: 56.8 F (13.8 C)
Relative Humidity: 68%
Pressure (altimeter): 30.1 in. Hg (1019 hPa)
ob: KAYS 070355Z AUTO 19004KT 10SM CLR 20/14 A3010 RMK AO2 T01970138 TSNO
cycle: 4

Station Type Date Time Source
KAYS TAF UTC NOAA

Error!

Example: see airport list